Time;durP1;ratioP1;P1;durP2;ratioP2;P2;SDS_P1;SDS_P2;PMS_P1;PMS_P2;Temp;Humidity;BMP_temperature;BMP_pressure;BME280_temperature;BME280_humidity;BME280_pressure;Samples;Min_cycle;Max_cycle;Signal;HPM_P1;HPM_P2
2020/12/28 09:15:43;;;;;;;50.93;24.90;;;3.80;99.90;;;;;;1991147;23;20509;-81
2020/12/28 09:18:11;;;;;;;45.50;23.13;;;3.80;99.90;;;;;;5008588;28;20223;-86
2020/12/28 09:20:37;;;;;;;47.63;23.60;;;3.90;99.90;;;;;;5011766;28;20231;-89
2020/12/28 09:23:03;;;;;;;46.70;23.30;;;3.90;99.90;;;;;;5029724;28;20211;-90
2020/12/28 09:25:29;;;;;;;48.20;23.57;;;4.00;99.90;;;;;;5030571;28;20226;-86
2020/12/28 09:27:56;;;;;;;49.37;25.10;;;4.00;99.90;;;;;;5031110;28;20788;-87
2020/12/28 09:30:23;;;;;;;55.97;25.03;;;4.10;99.90;;;;;;5028303;28;20716;-80
2020/12/28 09:32:49;;;;;;;42.97;24.27;;;4.10;99.90;;;;;;5029983;28;20253;-86
2020/12/28 09:35:16;;;;;;;56.17;26.73;;;4.10;99.90;;;;;;5030038;28;20206;-87
2020/12/28 09:37:43;;;;;;;46.30;24.07;;;4.20;99.90;;;;;;5030439;28;20202;-88
2020/12/28 09:40:09;;;;;;;43.30;24.17;;;4.20;99.90;;;;;;5029560;28;20629;-80
2020/12/28 09:42:36;;;;;;;45.40;23.27;;;4.30;99.90;;;;;;5028177;28;20203;-88
2020/12/28 09:45:04;;;;;;;53.50;24.60;;;4.40;99.90;;;;;;5030105;28;20578;-86
2020/12/28 09:47:30;;;;;;;45.10;22.60;;;4.40;99.90;;;;;;5029554;28;20286;-87
2020/12/28 09:49:56;;;;;;;51.30;24.87;;;4.40;99.90;;;;;;5029494;28;20222;-86
2020/12/28 09:52:24;;;;;;;44.13;22.37;;;4.50;99.90;;;;;;5029057;28;20913;-85
2020/12/28 09:54:50;;;;;;;40.87;22.17;;;4.50;99.90;;;;;;5029146;28;20202;-85
2020/12/28 09:57:17;;;;;;;38.17;21.00;;;4.50;99.90;;;;;;5028716;28;20210;-86
2020/12/28 09:59:43;;;;;;;33.00;19.23;;;4.50;99.90;;;;;;5028453;28;20207;-88
2020/12/28 10:02:10;;;;;;;40.37;19.70;;;4.50;99.90;;;;;;5029702;28;20317;-86
2020/12/28 10:04:36;;;;;;;32.37;17.47;;;4.50;99.90;;;;;;5028516;28;20214;-86
2020/12/28 10:07:03;;;;;;;32.17;17.80;;;4.60;99.90;;;;;;5029072;28;20202;-86
2020/12/28 10:09:30;;;;;;;31.47;17.17;;;4.60;99.90;;;;;;5025308;28;20206;-86
2020/12/28 10:11:56;;;;;;;30.53;16.23;;;4.70;99.90;;;;;;5011980;28;20211;-84
2020/12/28 10:14:23;;;;;;;29.27;15.60;;;4.70;99.90;;;;;;4990630;28;20510;-86
2020/12/28 10:16:49;;;;;;;28.43;15.70;;;4.70;99.90;;;;;;5006466;28;20747;-87
2020/12/28 10:19:15;;;;;;;27.60;15.10;;;4.70;99.90;;;;;;5028947;28;20199;-86
2020/12/28 10:21:42;;;;;;;25.93;14.30;;;4.80;99.90;;;;;;5015379;28;20281;-81
2020/12/28 10:24:08;;;;;;;29.47;15.43;;;4.90;99.90;;;;;;5008839;28;20290;-83
2020/12/28 10:26:36;;;;;;;22.10;14.90;;;4.90;99.90;;;;;;5009529;28;20217;-84
2020/12/28 10:29:02;;;;;;;23.90;13.67;;;4.90;99.90;;;;;;5012976;28;20199;-83
2020/12/28 10:31:28;;;;;;;26.67;14.27;;;5.00;99.90;;;;;;5011997;28;20206;-86
2020/12/28 10:33:55;;;;;;;23.00;13.67;;;5.00;99.90;;;;;;5013289;28;20199;-87
2020/12/28 10:36:24;;;;;;;26.13;14.10;;;5.10;99.90;;;;;;5013665;28;20211;-88
2020/12/28 10:38:52;;;;;;;24.00;12.63;;;5.00;99.90;;;;;;5014000;28;20357;-84
2020/12/28 10:41:24;;;;;;;22.53;12.43;;;5.00;99.90;;;;;;5012480;28;20380;-86
2020/12/28 10:43:52;;;;;;;24.57;14.67;;;5.10;99.90;;;;;;5013997;28;20614;-86
2020/12/28 10:46:18;;;;;;;23.43;14.27;;;5.10;99.90;;;;;;5013545;28;20557;-86
2020/12/28 10:48:44;;;;;;;21.77;14.73;;;5.10;99.90;;;;;;5013474;28;20210;-87
2020/12/28 10:51:11;;;;;;;19.30;13.57;;;5.00;99.90;;;;;;5012359;28;20203;-86
2020/12/28 10:53:37;;;;;;;21.17;15.10;;;5.00;99.90;;;;;;5013048;28;20207;-85
2020/12/28 10:56:05;;;;;;;23.70;15.07;;;5.00;99.90;;;;;;5013153;28;20200;-82
2020/12/28 10:58:32;;;;;;;21.47;14.20;;;5.10;99.90;;;;;;5013393;28;20211;-85
2020/12/28 11:00:59;;;;;;;18.20;12.93;;;5.00;99.90;;;;;;5012658;28;20251;-82
2020/12/28 11:03:25;;;;;;;17.87;11.93;;;5.00;99.90;;;;;;5013170;28;20227;-84
2020/12/28 11:05:51;;;;;;;19.60;10.90;;;4.90;99.90;;;;;;5012139;28;20211;-86
2020/12/28 11:08:18;;;;;;;15.13;9.57;;;4.90;99.90;;;;;;5012526;28;20823;-86
2020/12/28 11:10:44;;;;;;;15.07;9.30;;;4.90;99.90;;;;;;5013483;28;20195;-84
2020/12/28 11:13:11;;;;;;;15.30;9.03;;;5.00;99.90;;;;;;5012699;28;20293;-85
2020/12/28 11:15:37;;;;;;;11.37;8.17;;;5.00;99.90;;;;;;5011955;28;20270;-86
2020/12/28 11:18:05;;;;;;;13.37;8.80;;;5.00;99.90;;;;;;5012855;28;20239;-85
2020/12/28 11:20:31;;;;;;;11.03;8.40;;;5.00;99.90;;;;;;5013325;28;20262;-85
2020/12/28 11:22:57;;;;;;;14.70;8.73;;;5.10;99.90;;;;;;5012245;28;20199;-82
2020/12/28 11:25:23;;;;;;;12.43;7.57;;;5.10;99.90;;;;;;5012173;28;20203;-86
2020/12/28 11:27:50;;;;;;;15.43;8.10;;;5.10;99.90;;;;;;5006607;28;20207;-87
2020/12/28 11:30:16;;;;;;;12.70;7.57;;;5.10;99.90;;;;;;5007166;28;20242;-82
2020/12/28 11:32:43;;;;;;;11.30;6.57;;;5.10;99.90;;;;;;5009119;28;20488;-86
2020/12/28 11:35:10;;;;;;;12.00;7.70;;;5.10;99.90;;;;;;5010253;28;20758;-86
2020/12/28 11:37:36;;;;;;;13.00;6.80;;;5.10;99.90;;;;;;5009294;28;20215;-81
2020/12/28 11:40:03;;;;;;;10.90;5.63;;;5.10;99.90;;;;;;5007744;28;20191;-85
2020/12/28 11:42:30;;;;;;;11.30;5.67;;;5.10;99.90;;;;;;5008904;28;20203;-84
2020/12/28 11:44:57;;;;;;;13.10;5.97;;;5.10;99.90;;;;;;5009686;28;20211;-84
2020/12/28 11:47:23;;;;;;;21.23;6.30;;;5.20;99.90;;;;;;5010359;28;20203;-84
2020/12/28 11:49:50;;;;;;;11.83;6.10;;;5.20;99.90;;;;;;5010078;28;20261;-85
2020/12/28 11:52:18;;;;;;;10.27;5.60;;;5.20;99.90;;;;;;5010590;28;20202;-83
2020/12/28 11:54:44;;;;;;;9.77;5.73;;;5.20;99.90;;;;;;5009919;28;20294;-82
2020/12/28 11:57:11;;;;;;;14.07;5.50;;;5.30;99.90;;;;;;5010124;28;20200;-85
2020/12/28 11:59:37;;;;;;;14.83;5.70;;;5.40;99.90;;;;;;5009944;28;20234;-84
2020/12/28 12:02:03;;;;;;;12.40;5.60;;;5.40;99.90;;;;;;5009212;28;20235;-85
2020/12/28 12:07:14;;;;;;;9.13;4.70;;;5.50;99.90;;;;;;5007965;28;20573;-86
2020/12/28 12:09:41;;;;;;;11.13;5.43;;;5.60;99.90;;;;;;5009315;28;20210;-87
2020/12/28 12:12:07;;;;;;;7.63;5.60;;;5.70;99.90;;;;;;5009906;28;20257;-86
2020/12/28 12:14:34;;;;;;;9.70;5.23;;;5.70;99.90;;;;;;5010982;28;20210;-87
2020/12/28 12:17:00;;;;;;;8.00;4.90;;;5.70;99.90;;;;;;5010939;28;20239;-87
2020/12/28 12:19:26;;;;;;;10.43;5.13;;;5.80;99.90;;;;;;5009013;28;20195;-87
2020/12/28 12:21:52;;;;;;;10.60;5.10;;;5.90;99.90;;;;;;5028553;28;20280;-85
2020/12/28 12:24:19;;;;;;;8.27;4.67;;;5.90;99.90;;;;;;5043947;28;20205;-84
2020/12/28 12:26:46;;;;;;;8.80;4.90;;;5.90;99.90;;;;;;5044334;28;20576;-82
2020/12/28 12:29:12;;;;;;;7.03;4.37;;;5.90;99.90;;;;;;5045557;28;20236;-84
2020/12/28 12:31:39;;;;;;;7.83;4.80;;;5.90;99.90;;;;;;5046141;28;20201;-81
2020/12/28 12:34:05;;;;;;;8.17;4.17;;;5.90;99.90;;;;;;5046265;28;20508;-78
2020/12/28 12:36:31;;;;;;;9.83;4.67;;;6.00;99.90;;;;;;5045926;28;20202;-82
2020/12/28 12:38:57;;;;;;;8.73;4.83;;;6.00;99.90;;;;;;5045650;28;20205;-82
2020/12/28 12:41:24;;;;;;;8.27;4.97;;;6.00;99.90;;;;;;5045024;28;20226;-80
2020/12/28 12:43:51;;;;;;;9.10;5.30;;;5.90;99.90;;;;;;5045245;28;20309;-81
2020/12/28 12:46:17;;;;;;;8.20;4.20;;;5.90;99.90;;;;;;5045191;28;20206;-80
2020/12/28 12:48:44;;;;;;;8.80;4.93;;;5.90;99.90;;;;;;5044596;28;20206;-84
2020/12/28 12:51:12;;;;;;;6.77;4.03;;;5.80;99.90;;;;;;5043869;28;20198;-79
2020/12/28 12:53:38;;;;;;;10.17;4.63;;;5.80;99.90;;;;;;5044654;28;20320;-85
2020/12/28 12:56:05;;;;;;;15.63;4.93;;;5.80;99.90;;;;;;5045303;28;20871;-78
2020/12/28 12:58:32;;;;;;;9.70;3.93;;;5.80;99.90;;;;;;5044663;28;20776;-79
2020/12/28 13:00:59;;;;;;;9.40;4.23;;;5.80;99.90;;;;;;5044208;28;20229;-79
2020/12/28 13:03:25;;;;;;;6.93;3.80;;;5.70;99.90;;;;;;5045636;28;20206;-78
2020/12/28 13:05:52;;;;;;;8.43;3.83;;;5.70;99.90;;;;;;5045012;28;20275;-78
2020/12/28 13:08:18;;;;;;;6.37;3.60;;;5.70;99.90;;;;;;5043918;28;20194;-80
2020/12/28 13:10:44;;;;;;;10.17;3.63;;;5.70;99.90;;;;;;5044623;28;20209;-81
2020/12/28 13:13:17;;;;;;;8.80;3.80;;;5.70;99.90;;;;;;5096902;27;1343549;-79
2020/12/28 13:15:45;;;;;;;8.07;3.90;;;5.80;99.90;;;;;;5121883;28;20268;-79
2020/12/28 13:18:11;;;;;;;9.80;4.00;;;5.80;99.90;;;;;;5121697;28;20729;-78
2020/12/28 13:20:37;;;;;;;8.23;3.70;;;5.80;99.90;;;;;;5121822;28;20195;-79
2020/12/28 13:23:05;;;;;;;7.13;3.97;;;5.70;99.90;;;;;;5120823;28;20225;-79
2020/12/28 13:25:31;;;;;;;6.23;3.93;;;5.80;99.90;;;;;;5121358;28;20208;-80
2020/12/28 13:27:57;;;;;;;7.73;3.70;;;5.70;99.90;;;;;;5121427;28;20229;-79
2020/12/28 13:30:25;;;;;;;8.00;3.90;;;5.70;99.90;;;;;;5121601;28;20203;-81
2020/12/28 13:32:51;;;;;;;9.43;3.53;;;5.70;99.90;;;;;;5120157;28;20219;-81
2020/12/28 13:35:17;;;;;;;11.10;4.07;;;5.70;99.90;;;;;;5119440;28;20876;-84
2020/12/28 13:37:43;;;;;;;7.03;3.40;;;5.70;99.90;;;;;;5120956;28;20920;-82
2020/12/28 13:40:10;;;;;;;5.73;3.37;;;5.60;99.90;;;;;;5124391;28;20203;-86
2020/12/28 13:42:36;;;;;;;9.30;3.00;;;5.60;99.90;;;;;;5128097;28;20245;-84
2020/12/28 13:45:02;;;;;;;6.60;3.13;;;5.60;99.90;;;;;;5128279;28;20203;-88
2020/12/28 13:47:33;;;;;;;6.77;3.70;;;5.60;99.90;;;;;;5128227;28;20200;-87
2020/12/28 13:49:59;;;;;;;4.90;2.63;;;5.60;99.90;;;;;;5127031;28;20203;-85
2020/12/28 13:52:25;;;;;;;5.53;2.43;;;5.50;99.90;;;;;;5127510;28;20227;-85
2020/12/28 13:54:52;;;;;;;6.43;2.90;;;5.50;99.90;;;;;;5127058;28;20195;-86
2020/12/28 13:57:18;;;;;;;8.83;3.53;;;5.50;99.90;;;;;;5127539;28;20195;-86
2020/12/28 13:59:44;;;;;;;7.70;3.67;;;5.50;99.90;;;;;;5126088;28;20206;-87
2020/12/28 14:02:11;;;;;;;5.87;2.60;;;5.50;99.90;;;;;;5106438;28;20211;-86
2020/12/28 14:04:38;;;;;;;4.23;2.50;;;5.50;99.90;;;;;;5105093;28;20260;-85
2020/12/28 14:07:04;;;;;;;6.83;3.30;;;5.50;99.90;;;;;;5107024;28;20199;-86
2020/12/28 14:09:31;;;;;;;4.90;2.33;;;5.50;99.90;;;;;;5105635;28;20230;-86
2020/12/28 14:11:57;;;;;;;6.27;2.80;;;5.50;99.90;;;;;;5104934;28;20227;-87
2020/12/28 14:14:23;;;;;;;7.23;2.80;;;5.50;99.90;;;;;;5106777;28;20282;-86
2020/12/28 14:16:50;;;;;;;10.93;3.07;;;5.50;99.90;;;;;;5105597;28;20204;-85
2020/12/28 14:19:16;;;;;;;6.20;2.70;;;5.50;99.90;;;;;;5104837;28;20204;-85
2020/12/28 14:21:44;;;;;;;5.23;2.93;;;5.50;99.90;;;;;;5105480;28;20192;-86
2020/12/28 14:24:10;;;;;;;7.87;3.27;;;5.40;99.90;;;;;;5095069;28;20576;-86
2020/12/28 14:26:36;;;;;;;8.50;3.30;;;5.50;99.90;;;;;;5092573;28;20946;-83
2020/12/28 14:29:03;;;;;;;10.53;3.60;;;5.40;99.90;;;;;;5090854;28;20196;-86
2020/12/28 14:31:29;;;;;;;7.80;3.60;;;5.30;99.90;;;;;;5092620;28;20220;-85
2020/12/28 14:33:55;;;;;;;5.80;2.90;;;5.30;99.90;;;;;;5092037;28;20613;-87
2020/12/28 14:36:23;;;;;;;10.87;4.03;;;5.30;99.90;;;;;;5090905;28;20289;-86
2020/12/28 14:38:51;;;;;;;4.53;3.20;;;5.30;99.90;;;;;;5092495;28;20208;-85
2020/12/28 14:41:20;;;;;;;7.77;3.70;;;5.20;99.90;;;;;;5090277;28;20197;-86
2020/12/28 14:43:48;;;;;;;11.10;3.63;;;5.20;99.90;;;;;;5087148;28;20539;-85
2020/12/28 14:46:18;;;;;;;5.97;3.43;;;5.20;99.90;;;;;;5090173;28;20284;-85
2020/12/28 14:48:45;;;;;;;7.10;3.30;;;5.20;99.90;;;;;;5091642;28;20597;-80
2020/12/28 14:51:12;;;;;;;5.93;3.33;;;5.20;99.90;;;;;;5089993;28;20219;-84
2020/12/28 14:53:39;;;;;;;5.77;3.37;;;5.20;99.90;;;;;;5090437;28;20208;-85
2020/12/28 14:56:06;;;;;;;4.90;3.63;;;5.10;99.90;;;;;;5091260;28;20254;-85
2020/12/28 14:58:32;;;;;;;4.27;3.50;;;5.10;99.90;;;;;;5090999;28;20197;-79
2020/12/28 15:00:59;;;;;;;5.70;3.80;;;5.00;99.90;;;;;;5089836;28;20270;-81
2020/12/28 15:03:27;;;;;;;6.83;3.70;;;5.00;99.90;;;;;;5090174;28;20196;-86
2020/12/28 15:05:54;;;;;;;6.90;4.13;;;5.00;99.90;;;;;;5091191;28;20220;-84
2020/12/28 15:08:20;;;;;;;5.70;3.43;;;5.00;99.90;;;;;;5089738;28;20204;-81
2020/12/28 15:10:46;;;;;;;6.17;4.27;;;4.90;99.90;;;;;;5090319;28;20199;-85
2020/12/28 15:13:14;;;;;;;4.50;3.53;;;4.90;99.90;;;;;;5090298;28;20614;-85
2020/12/28 15:15:40;;;;;;;7.60;4.30;;;4.90;99.90;;;;;;5089887;28;20211;-84
2020/12/28 15:18:08;;;;;;;6.93;4.10;;;4.90;99.90;;;;;;5089702;28;20325;-85
2020/12/28 15:20:34;;;;;;;7.90;4.20;;;4.90;99.90;;;;;;5090003;28;20845;-86
2020/12/28 15:23:00;;;;;;;7.70;4.10;;;4.80;99.90;;;;;;5090458;28;20359;-84
2020/12/28 15:25:27;;;;;;;7.30;3.90;;;4.80;99.90;;;;;;5090524;28;20200;-85
2020/12/28 15:27:53;;;;;;;7.40;3.30;;;4.80;99.90;;;;;;5090024;28;20213;-83
2020/12/28 15:30:20;;;;;;;9.83;4.30;;;4.80;99.90;;;;;;5090024;28;20209;-82
2020/12/28 15:32:47;;;;;;;7.20;4.33;;;4.80;99.90;;;;;;5090195;28;20224;-83
2020/12/28 15:35:13;;;;;;;5.30;4.10;;;4.90;99.90;;;;;;5088331;28;20241;-82
2020/12/28 15:37:39;;;;;;;8.13;3.97;;;4.80;99.90;;;;;;5088818;28;20204;-80
2020/12/28 15:40:06;;;;;;;7.70;4.27;;;4.80;99.90;;;;;;5086941;28;20212;-79
2020/12/28 15:42:32;;;;;;;8.30;4.03;;;4.90;99.90;;;;;;5087330;28;20626;-80
2020/12/28 15:44:58;;;;;;;6.70;3.70;;;4.80;99.90;;;;;;5087842;28;20913;-81
2020/12/28 15:47:27;;;;;;;5.30;3.90;;;4.80;99.90;;;;;;5088451;28;20204;-82
2020/12/28 15:49:54;;;;;;;7.20;4.50;;;4.80;99.90;;;;;;5088230;28;20208;-78
2020/12/28 15:52:20;;;;;;;7.40;4.70;;;4.80;99.90;;;;;;5087800;28;20522;-83
2020/12/28 15:54:46;;;;;;;9.60;5.07;;;4.80;99.90;;;;;;5085605;28;20196;-83
2020/12/28 15:57:13;;;;;;;11.93;4.90;;;4.80;99.90;;;;;;5087214;28;20200;-84
2020/12/28 15:59:39;;;;;;;6.53;4.43;;;4.70;99.90;;;;;;5088254;28;20220;-82
2020/12/28 16:02:05;;;;;;;5.43;3.80;;;4.70;99.90;;;;;;5084501;28;20213;-84
2020/12/28 16:04:32;;;;;;;6.33;3.80;;;4.70;99.90;;;;;;5087127;28;20214;-84
2020/12/28 16:06:59;;;;;;;6.10;3.83;;;4.70;99.90;;;;;;5087306;28;20212;-84
2020/12/28 16:09:25;;;;;;;10.20;3.83;;;4.70;99.90;;;;;;5085727;28;20201;-79
2020/12/28 16:11:51;;;;;;;4.43;3.77;;;4.70;99.90;;;;;;5088845;28;20236;-82
2020/12/28 16:14:17;;;;;;;5.30;3.60;;;4.70;99.90;;;;;;5085653;28;20219;-85
2020/12/28 16:16:45;;;;;;;6.13;4.47;;;4.70;99.90;;;;;;5084520;28;20197;-84
2020/12/28 16:19:11;;;;;;;5.97;4.23;;;4.70;99.90;;;;;;5090464;28;20576;-85
2020/12/28 16:21:39;;;;;;;8.00;5.03;;;4.60;99.90;;;;;;5090569;28;20201;-84
2020/12/28 16:24:05;;;;;;;7.37;4.30;;;4.60;99.90;;;;;;5089736;28;20584;-84
2020/12/28 16:26:31;;;;;;;5.40;4.40;;;4.70;99.90;;;;;;5091380;28;20238;-81
2020/12/28 16:28:58;;;;;;;7.70;4.67;;;4.60;99.90;;;;;;5093029;28;20265;-85
2020/12/28 16:31:27;;;;;;;9.13;4.23;;;4.70;99.90;;;;;;5090415;28;20227;-83
2020/12/28 16:33:54;;;;;;;6.97;4.93;;;4.70;99.90;;;;;;5088857;28;20212;-84
2020/12/28 16:36:20;;;;;;;5.97;4.50;;;4.70;99.90;;;;;;5088845;28;20240;-85
2020/12/28 16:38:49;;;;;;;5.93;4.27;;;4.80;99.90;;;;;;5088153;28;20200;-85
2020/12/28 16:41:19;;;;;;;6.27;4.30;;;4.70;99.90;;;;;;5088976;28;20216;-83
2020/12/28 16:43:45;;;;;;;6.70;4.33;;;4.70;99.90;;;;;;5088711;28;20223;-84
2020/12/28 16:46:13;;;;;;;7.30;4.57;;;4.70;99.90;;;;;;5089539;28;20230;-84
2020/12/28 16:48:39;;;;;;;11.07;5.33;;;4.70;99.90;;;;;;5088440;28;20201;-87
2020/12/28 16:51:05;;;;;;;7.73;5.10;;;4.80;99.90;;;;;;5088879;28;20201;-87
2020/12/28 16:53:32;;;;;;;8.77;6.40;;;4.80;99.90;;;;;;5090133;28;20223;-89
2020/12/28 16:55:59;;;;;;;9.67;5.13;;;4.70;99.90;;;;;;5088911;28;20778;-88
2020/12/28 16:58:25;;;;;;;8.67;5.07;;;4.70;99.90;;;;;;5088789;28;20204;-87
2020/12/28 17:00:51;;;;;;;8.40;5.27;;;4.70;99.90;;;;;;5090378;28;20221;-89
2020/12/28 17:03:18;;;;;;;8.77;5.03;;;4.70;99.90;;;;;;5088859;28;20651;-80
2020/12/28 17:05:44;;;;;;;9.10;6.03;;;4.60;99.90;;;;;;5089266;28;20874;-89
2020/12/28 17:08:11;;;;;;;9.77;4.97;;;4.50;99.90;;;;;;5090538;28;20209;-89
2020/12/28 17:10:37;;;;;;;8.23;5.10;;;4.50;99.90;;;;;;5091107;28;20204;-89
2020/12/28 17:13:07;;;;;;;6.23;5.23;;;4.50;99.90;;;;;;5087775;28;20243;-80
2020/12/28 17:15:33;;;;;;;9.13;5.00;;;4.50;99.90;;;;;;5090097;28;20675;-89
2020/12/28 17:18:00;;;;;;;8.90;5.47;;;4.40;99.90;;;;;;5090044;28;20204;-87
2020/12/28 17:20:27;;;;;;;6.30;5.00;;;4.30;99.90;;;;;;5089029;28;20289;-88
2020/12/28 17:22:53;;;;;;;5.47;4.67;;;4.30;99.90;;;;;;5071144;28;20205;-86
2020/12/28 17:25:20;;;;;;;7.83;5.37;;;4.30;99.90;;;;;;5088097;28;20203;-89
2020/12/28 17:27:46;;;;;;;6.73;4.77;;;4.30;99.90;;;;;;5088538;28;20250;-89
2020/12/28 17:30:14;;;;;;;6.43;4.53;;;4.20;99.90;;;;;;5088308;28;20215;-89
2020/12/28 17:32:40;;;;;;;6.90;5.17;;;4.20;99.90;;;;;;5087846;28;20228;-83
2020/12/28 17:35:07;;;;;;;8.67;5.33;;;4.20;99.90;;;;;;5088465;28;20207;-88
2020/12/28 17:37:33;;;;;;;7.77;5.70;;;4.20;99.90;;;;;;5088960;28;20203;-88
2020/12/28 17:39:59;;;;;;;9.77;6.70;;;4.20;99.90;;;;;;5088083;28;20205;-86
2020/12/28 17:42:25;;;;;;;11.90;7.67;;;4.20;99.90;;;;;;5087969;28;20205;-79
2020/12/28 17:44:52;;;;;;;13.67;7.00;;;4.10;99.90;;;;;;5087852;28;20209;-85
2020/12/28 17:47:19;;;;;;;11.00;7.60;;;4.10;99.90;;;;;;5085856;28;20649;-80
2020/12/28 17:49:45;;;;;;;9.20;5.97;;;4.10;99.90;;;;;;5082315;28;20204;-80
2020/12/28 17:52:11;;;;;;;9.30;6.03;;;4.10;99.90;;;;;;5081883;28;20224;-82
2020/12/28 17:54:38;;;;;;;8.33;6.07;;;4.10;99.90;;;;;;5082143;28;20612;-79
2020/12/28 17:57:04;;;;;;;7.63;6.07;;;4.10;99.90;;;;;;5082236;28;20205;-82
2020/12/28 17:59:32;;;;;;;8.60;6.27;;;4.00;99.90;;;;;;5086103;28;20231;-87
2020/12/28 18:01:58;;;;;;;10.80;6.17;;;4.00;99.90;;;;;;5089880;28;20295;-86
2020/12/28 18:04:25;;;;;;;8.27;6.07;;;3.90;99.90;;;;;;5087590;28;20205;-84
2020/12/28 18:06:52;;;;;;;9.87;5.83;;;3.90;99.90;;;;;;5086327;28;20197;-82
2020/12/28 18:09:18;;;;;;;10.17;5.90;;;3.90;99.90;;;;;;5086349;28;20980;-83
2020/12/28 18:11:45;;;;;;;8.47;6.27;;;3.90;99.90;;;;;;5086403;28;20278;-79
2020/12/28 18:14:11;;;;;;;7.73;5.77;;;3.90;99.90;;;;;;5087325;28;20200;-79
2020/12/28 18:16:37;;;;;;;9.30;7.03;;;3.80;99.90;;;;;;5087117;28;20220;-81
2020/12/28 18:19:04;;;;;;;9.37;6.43;;;3.80;99.90;;;;;;5086694;28;20226;-80
2020/12/28 18:21:31;;;;;;;6.97;6.10;;;3.80;99.90;;;;;;5087523;28;20260;-81
2020/12/28 18:23:58;;;;;;;7.13;5.43;;;3.80;99.90;;;;;;5094056;22;20906;-84
2020/12/28 18:26:24;;;;;;;6.60;5.60;;;3.70;99.90;;;;;;5087589;28;20250;-82
2020/12/28 18:28:52;;;;;;;7.70;5.70;;;3.70;99.90;;;;;;5087718;28;20200;-81
2020/12/28 18:31:20;;;;;;;6.47;5.70;;;3.70;99.90;;;;;;5086895;28;20205;-80
2020/12/28 18:33:46;;;;;;;7.50;5.80;;;3.60;99.90;;;;;;5086560;28;20221;-80
2020/12/28 18:36:13;;;;;;;10.73;6.40;;;3.60;99.90;;;;;;5085303;28;20205;-81
2020/12/28 18:38:41;;;;;;;10.53;6.90;;;3.50;99.90;;;;;;5087622;28;20570;-82
2020/12/28 18:41:08;;;;;;;8.53;5.80;;;3.50;99.90;;;;;;5086370;28;20208;-80
2020/12/28 18:43:35;;;;;;;8.80;5.97;;;3.50;99.90;;;;;;5085999;28;20200;-80
2020/12/28 18:46:02;;;;;;;8.43;6.10;;;3.40;99.90;;;;;;5085843;28;20611;-83
2020/12/28 18:48:29;;;;;;;10.60;6.93;;;3.40;99.90;;;;;;5085942;28;20204;-80
2020/12/28 18:50:55;;;;;;;10.37;6.83;;;3.40;99.90;;;;;;5084874;28;20334;-79
2020/12/28 18:53:21;;;;;;;9.90;8.10;;;3.40;99.90;;;;;;5085733;28;20633;-80
2020/12/28 18:55:49;;;;;;;9.60;7.53;;;3.40;99.90;;;;;;5084935;28;20201;-80
2020/12/28 18:58:16;;;;;;;9.20;7.30;;;3.40;99.90;;;;;;5084224;28;20896;-79
2020/12/28 19:00:43;;;;;;;8.80;6.77;;;3.40;99.90;;;;;;5095854;28;20215;-79
2020/12/28 22:43:18;;;;;;;22.80;15.37;;;4.30;99.90;;;;;;4801666;29;20219;-88
2020/12/28 22:45:45;;;;;;;20.00;14.03;;;4.30;99.90;;;;;;4893002;29;20214;-85
2020/12/28 22:48:11;;;;;;;19.33;13.87;;;4.30;99.90;;;;;;4996367;28;20215;-88
2020/12/28 22:50:37;;;;;;;17.97;14.00;;;4.30;99.90;;;;;;5001722;28;20507;-87
2020/12/28 22:53:03;;;;;;;19.30;14.90;;;4.30;99.90;;;;;;4994250;28;20360;-88
2020/12/28 22:55:30;;;;;;;19.90;14.70;;;4.30;99.90;;;;;;4991411;28;20212;-82
2020/12/28 22:57:57;;;;;;;16.53;12.77;;;4.30;99.90;;;;;;4990987;28;20207;-88
2020/12/28 23:00:27;;;;;;;18.80;14.40;;;4.30;99.90;;;;;;4991287;28;20338;-88
2020/12/28 23:02:54;;;;;;;19.90;13.93;;;4.20;99.90;;;;;;4991786;28;20228;-89
2020/12/28 23:05:20;;;;;;;15.53;12.37;;;4.30;99.90;;;;;;4990354;28;20192;-88
2020/12/28 23:07:47;;;;;;;18.07;12.70;;;4.30;99.90;;;;;;4990838;28;20208;-86
2020/12/28 23:10:14;;;;;;;16.70;11.67;;;4.20;99.90;;;;;;4991428;28;20208;-89
2020/12/28 23:12:40;;;;;;;14.87;11.30;;;4.20;99.90;;;;;;5015704;28;20238;-89
2020/12/28 23:15:06;;;;;;;17.07;12.83;;;4.30;99.90;;;;;;5022679;28;20629;-88
2020/12/28 23:17:34;;;;;;;20.50;14.53;;;4.20;99.90;;;;;;5022801;28;20210;-87
2020/12/28 23:20:00;;;;;;;21.50;16.47;;;4.20;99.90;;;;;;5025872;28;20334;-87
2020/12/28 23:22:26;;;;;;;20.67;14.50;;;4.20;99.90;;;;;;5029904;28;20195;-88
2020/12/28 23:24:53;;;;;;;18.43;14.60;;;4.20;99.90;;;;;;5030271;28;20322;-88
2020/12/28 23:27:19;;;;;;;19.53;14.00;;;4.20;99.90;;;;;;5029545;28;20294;-87
2020/12/28 23:29:45;;;;;;;22.97;17.03;;;4.20;99.90;;;;;;5030319;28;20202;-87
2020/12/28 23:32:12;;;;;;;17.37;13.67;;;4.20;99.90;;;;;;5029212;28;20229;-87
2020/12/28 23:34:39;;;;;;;17.30;13.30;;;4.20;99.90;;;;;;5029678;28;20206;-86
2020/12/28 23:37:06;;;;;;;14.40;12.20;;;4.20;99.90;;;;;;5029043;28;20203;-88
2020/12/28 23:39:32;;;;;;;20.97;16.07;;;4.20;99.90;;;;;;5029317;28;20211;-87
2020/12/28 23:41:58;;;;;;;22.30;16.93;;;4.20;99.90;;;;;;5029478;28;20210;-88
2020/12/28 23:44:25;;;;;;;25.20;17.03;;;4.20;99.90;;;;;;5027595;28;20203;-84
2020/12/28 23:46:52;;;;;;;23.37;15.63;;;4.20;99.90;;;;;;5027286;28;20259;-83
2020/12/28 23:49:18;;;;;;;22.23;15.10;;;4.20;99.90;;;;;;5028090;28;20206;-82
2020/12/28 23:51:46;;;;;;;20.90;16.20;;;4.20;99.90;;;;;;5023086;28;20227;-85
2020/12/28 23:54:12;;;;;;;19.93;14.10;;;4.20;99.90;;;;;;5044839;28;20210;-84
2020/12/28 23:56:39;;;;;;;21.77;14.97;;;4.20;99.90;;;;;;5045960;28;20186;-87
2020/12/28 23:59:06;;;;;;;20.57;16.10;;;4.20;99.90;;;;;;5044329;28;20206;-79
